createdAt,value
2023-03-06T00:01:29.916Z,100.00
2023-03-06T00:03:58.725Z,100.00
2023-03-06T00:06:27.708Z,100.00
2023-03-06T00:08:56.633Z,100.00
2023-03-06T00:11:25.431Z,100.00
2023-03-06T00:13:54.255Z,100.00
2023-03-06T00:16:25.025Z,100.00
2023-03-06T00:18:53.921Z,100.00
2023-03-06T00:21:22.924Z,100.00
2023-03-06T00:23:51.731Z,100.00
2023-03-06T00:26:20.579Z,100.00
2023-03-06T00:28:49.411Z,100.00
2023-03-06T00:31:19.008Z,100.00
2023-03-06T00:33:49.566Z,100.00
2023-03-06T00:36:19.652Z,100.00
2023-03-06T00:38:48.508Z,100.00
2023-03-06T00:41:17.316Z,100.00
2023-03-06T00:43:46.107Z,100.00
2023-03-06T00:46:14.960Z,100.00
2023-03-06T00:48:45.078Z,100.00
2023-03-06T00:51:16.696Z,100.00
2023-03-06T00:53:45.564Z,100.00
2023-03-06T00:56:14.401Z,100.00
2023-03-06T00:58:43.678Z,100.00
2023-03-06T01:01:12.951Z,100.00
2023-03-06T01:03:41.990Z,100.00
2023-03-06T01:06:10.837Z,100.00
2023-03-06T01:08:41.015Z,100.00
2023-03-06T01:11:10.087Z,100.00
2023-03-06T01:13:38.985Z,100.00
2023-03-06T01:16:10.721Z,100.00
2023-03-06T01:18:39.780Z,100.00
2023-03-06T01:21:09.567Z,100.00
2023-03-06T01:23:38.499Z,100.00
2023-03-06T01:26:09.319Z,100.00
2023-03-06T01:28:39.239Z,100.00
2023-03-06T01:31:10.318Z,100.00
2023-03-06T01:33:39.611Z,100.00
2023-03-06T01:36:11.862Z,100.00
2023-03-06T01:38:41.193Z,100.00
2023-03-06T01:41:15.745Z,100.00
2023-03-06T01:43:46.439Z,100.00
2023-03-06T01:46:26.342Z,100.00
2023-03-06T01:48:57.705Z,100.00
2023-03-06T01:51:31.342Z,100.00
2023-03-06T01:54:03.290Z,100.00
2023-03-06T01:56:33.517Z,100.00
2023-03-06T01:59:03.326Z,100.00
2023-03-06T02:01:34.239Z,100.00
2023-03-06T02:04:03.808Z,100.00
2023-03-06T02:06:34.792Z,100.00
2023-03-06T02:09:06.760Z,100.00
2023-03-06T02:11:37.504Z,100.00
2023-03-06T02:14:06.585Z,100.00
2023-03-06T02:16:35.782Z,100.00
2023-03-06T02:19:08.613Z,100.00
2023-03-06T02:21:39.120Z,100.00
2023-03-06T02:24:23.390Z,100.00
2023-03-06T02:26:54.995Z,100.00
2023-03-06T02:29:27.919Z,100.00
2023-03-06T02:31:59.536Z,100.00
2023-03-06T02:34:53.071Z,100.00
2023-03-06T02:37:23.395Z,100.00
2023-03-06T02:39:59.655Z,100.00
2023-03-06T02:42:30.227Z,100.00
2023-03-06T02:45:02.272Z,100.00
2023-03-06T02:47:31.268Z,100.00
2023-03-06T02:50:00.118Z,100.00
2023-03-06T02:52:29.748Z,100.00
2023-03-06T02:54:58.590Z,100.00
2023-03-06T02:57:27.517Z,100.00
2023-03-06T02:59:59.254Z,100.00
2023-03-06T03:02:28.337Z,100.00
2023-03-06T03:04:57.277Z,100.00
2023-03-06T03:07:26.859Z,100.00
2023-03-06T03:09:55.733Z,100.00
2023-03-06T03:12:25.285Z,100.00
2023-03-06T03:14:54.348Z,100.00
2023-03-06T03:17:24.918Z,100.00
2023-03-06T03:19:53.781Z,100.00
2023-03-06T03:22:23.172Z,100.00
2023-03-06T03:24:52.304Z,100.00
2023-03-06T03:27:21.391Z,100.00
2023-03-06T03:29:50.327Z,100.00
2023-03-06T03:32:19.213Z,100.00
2023-03-06T03:34:49.722Z,100.00
2023-03-06T03:37:20.348Z,100.00
2023-03-06T03:39:49.640Z,100.00
2023-03-06T03:42:18.750Z,100.00
2023-03-06T03:44:47.793Z,100.00
2023-03-06T03:47:19.397Z,100.00
2023-03-06T03:49:49.722Z,100.00
2023-03-06T03:52:20.505Z,100.00
2023-03-06T03:54:49.331Z,100.00
2023-03-06T03:57:18.331Z,100.00
2023-03-06T03:59:52.263Z,100.00
2023-03-06T04:02:41.032Z,100.00
2023-03-06T04:05:20.378Z,100.00
2023-03-06T04:07:50.500Z,100.00
2023-03-06T04:10:19.482Z,100.00
2023-03-06T04:12:48.830Z,100.00
2023-03-06T04:15:17.850Z,100.00
2023-03-06T04:17:48.703Z,100.00
2023-03-06T04:20:24.194Z,100.00
2023-03-06T04:22:54.240Z,100.00
2023-03-06T04:25:23.872Z,100.00
2023-03-06T04:27:53.034Z,100.00
2023-03-06T04:30:22.681Z,100.00
2023-03-06T04:32:51.989Z,100.00
2023-03-06T04:35:21.060Z,100.00
2023-03-06T04:38:00.711Z,96.27
2023-03-06T04:40:34.272Z,90.65
2023-03-06T04:43:06.439Z,99.80
2023-03-06T04:45:36.188Z,100.00
2023-03-06T04:48:05.486Z,100.00
2023-03-06T04:50:34.631Z,100.00
2023-03-06T04:53:05.291Z,100.00
2023-03-06T04:55:34.433Z,100.00
2023-03-06T04:58:03.850Z,100.00
2023-03-06T05:00:32.737Z,100.00
2023-03-06T05:03:02.558Z,100.00
2023-03-06T05:05:31.792Z,100.00
2023-03-06T05:08:00.809Z,100.00
2023-03-06T05:10:31.061Z,100.00
2023-03-06T05:12:59.896Z,100.00
2023-03-06T05:15:29.544Z,100.00
2023-03-06T05:17:58.376Z,100.00
2023-03-06T05:20:28.539Z,100.00
2023-03-06T05:22:57.403Z,100.00
2023-03-06T05:25:26.318Z,100.00
2023-03-06T05:27:56.535Z,100.00
2023-03-06T05:30:25.569Z,100.00
2023-03-06T05:32:54.465Z,100.00
2023-03-06T05:35:24.510Z,100.00
2023-03-06T05:37:53.469Z,100.00
2023-03-06T05:40:22.755Z,100.00
2023-03-06T05:42:51.595Z,100.00
2023-03-06T05:45:21.870Z,100.00
2023-03-06T05:47:50.780Z,100.00
2023-03-06T05:50:19.906Z,100.00
2023-03-06T05:52:48.771Z,99.64
2023-03-06T05:55:19.652Z,92.46
2023-03-06T05:57:48.882Z,91.46
2023-03-06T06:00:19.401Z,92.82
2023-03-06T06:02:49.707Z,92.36
2023-03-06T06:05:18.695Z,92.56
2023-03-06T06:07:47.597Z,89.39
2023-03-06T06:10:17.710Z,89.00
2023-03-06T06:12:46.491Z,90.71
2023-03-06T06:15:15.506Z,89.82
2023-03-06T06:17:44.302Z,90.97
2023-03-06T06:20:17.309Z,89.42
2023-03-06T06:22:46.260Z,90.96
2023-03-06T06:25:15.394Z,100.00
2023-03-06T06:27:44.634Z,93.79
2023-03-06T06:30:16.341Z,84.69
2023-03-06T06:32:45.146Z,86.94
2023-03-06T06:35:15.513Z,86.95
2023-03-06T06:37:44.312Z,84.09
2023-03-06T06:40:13.775Z,76.64
2023-03-06T06:42:42.956Z,72.67
2023-03-06T06:45:12.685Z,72.13
2023-03-06T06:47:42.180Z,69.00
2023-03-06T06:50:13.939Z,65.75
2023-03-06T06:52:44.243Z,63.49
2023-03-06T06:55:13.681Z,75.75
2023-03-06T06:57:43.300Z,69.02
2023-03-06T07:00:15.398Z,56.88
2023-03-06T07:02:44.228Z,53.94
2023-03-06T07:05:13.068Z,54.38
2023-03-06T07:07:41.974Z,59.18
2023-03-06T07:10:16.292Z,53.80
2023-03-06T07:12:45.465Z,53.16
2023-03-06T07:15:15.233Z,53.70
2023-03-06T07:17:44.175Z,57.35
2023-03-06T07:20:13.199Z,54.81
2023-03-06T07:22:50.944Z,58.99
2023-03-06T07:25:22.452Z,64.86
2023-03-06T07:27:54.138Z,61.86
2023-03-06T07:30:24.420Z,64.89
2023-03-06T07:32:56.894Z,58.58
2023-03-06T07:35:26.591Z,61.00
2023-03-06T07:37:55.509Z,58.62
2023-03-06T07:40:26.494Z,58.34
2023-03-06T07:43:06.074Z,60.80
2023-03-06T07:45:47.000Z,69.21
2023-03-06T07:48:16.062Z,61.22
2023-03-06T07:50:45.179Z,58.40
2023-03-06T07:53:14.383Z,62.33
2023-03-06T07:55:44.622Z,65.95
2023-03-06T07:58:13.507Z,64.54
2023-03-06T08:00:42.385Z,62.03
2023-03-06T08:03:12.441Z,64.37
2023-03-06T08:05:41.468Z,64.67
2023-03-06T08:08:10.552Z,63.45
2023-03-06T08:10:39.326Z,63.19
2023-03-06T08:13:09.509Z,56.32
2023-03-06T08:15:38.340Z,53.13
2023-03-06T08:18:07.263Z,49.08
2023-03-06T08:20:36.140Z,48.63
2023-03-06T08:23:05.015Z,45.67
2023-03-06T08:25:33.871Z,45.20
2023-03-06T08:28:03.208Z,46.95
2023-03-06T08:30:33.499Z,45.40
2023-03-06T08:33:02.505Z,42.00
2023-03-06T08:35:31.367Z,40.87
2023-03-06T08:38:00.172Z,41.51
2023-03-06T08:40:30.551Z,40.10
2023-03-06T08:42:59.389Z,40.90
2023-03-06T08:45:28.276Z,43.59
2023-03-06T08:47:58.533Z,42.05
2023-03-06T08:50:27.417Z,39.97
2023-03-06T08:52:56.253Z,40.63
2023-03-06T08:55:25.058Z,39.83
2023-03-06T08:57:53.855Z,39.53
2023-03-06T09:00:22.997Z,41.07
2023-03-06T09:02:51.947Z,42.30
2023-03-06T09:05:22.351Z,45.18
2023-03-06T09:07:51.194Z,45.34
2023-03-06T09:10:22.056Z,42.28
2023-03-06T09:12:54.426Z,40.39
2023-03-06T09:15:24.948Z,40.64
2023-03-06T09:17:54.412Z,40.44
2023-03-06T09:20:24.663Z,42.05
2023-03-06T09:22:53.547Z,44.70
2023-03-06T09:25:23.360Z,40.69
2023-03-06T09:28:08.764Z,41.06
2023-03-06T09:30:41.989Z,44.63
2023-03-06T09:33:10.911Z,43.96
2023-03-06T09:35:48.495Z,41.80
2023-03-06T09:38:17.385Z,38.48
2023-03-06T09:41:00.752Z,43.08
2023-03-06T09:43:33.116Z,42.60
2023-03-06T09:46:04.049Z,44.21
2023-03-06T09:48:41.752Z,43.24
2023-03-06T09:51:16.429Z,45.32
2023-03-06T09:53:57.402Z,46.69
2023-03-06T09:56:31.150Z,46.97
2023-03-06T09:59:06.670Z,47.67
2023-03-06T10:01:41.211Z,48.33
2023-03-06T10:04:19.686Z,48.27
2023-03-06T10:06:51.757Z,48.24
2023-03-06T10:09:25.809Z,47.97
2023-03-06T10:11:58.150Z,47.63
2023-03-06T10:14:32.866Z,48.06
2023-03-06T10:17:02.442Z,47.03
2023-03-06T10:19:34.743Z,46.20
2023-03-06T10:22:12.000Z,48.00
2023-03-06T10:24:50.155Z,47.50
2023-03-06T10:27:35.737Z,47.05
2023-03-06T10:30:22.112Z,46.60
2023-03-06T10:32:57.539Z,46.86
2023-03-06T10:35:33.826Z,45.72
2023-03-06T10:38:21.079Z,45.71
2023-03-06T10:41:05.015Z,45.36
2023-03-06T10:43:36.268Z,44.41
2023-03-06T10:46:07.526Z,44.61
2023-03-06T10:48:40.910Z,44.97
2023-03-06T10:51:18.928Z,42.11
2023-03-06T10:53:55.085Z,42.39
2023-03-06T10:56:32.894Z,43.33
2023-03-06T10:59:09.981Z,42.96
2023-03-06T11:01:40.123Z,42.81
2023-03-06T11:04:24.951Z,42.90
2023-03-06T11:07:08.145Z,41.47
2023-03-06T11:09:38.603Z,42.30
2023-03-06T11:12:23.978Z,42.53
2023-03-06T11:15:18.821Z,39.90
2023-03-06T11:17:54.284Z,38.86
2023-03-06T11:20:26.746Z,39.80
2023-03-06T11:23:00.782Z,39.97
2023-03-06T11:25:36.020Z,39.07
2023-03-06T11:28:09.447Z,40.05
2023-03-06T11:30:43.509Z,38.48
2023-03-06T11:33:20.365Z,38.50
2023-03-06T11:35:57.969Z,38.56
2023-03-06T11:38:36.556Z,38.88
2023-03-06T11:41:14.994Z,37.34
2023-03-06T11:43:52.162Z,36.18
2023-03-06T11:46:25.687Z,38.11
2023-03-06T11:48:59.402Z,35.44
2023-03-06T11:51:32.599Z,36.71
2023-03-06T11:54:03.191Z,36.77
2023-03-06T11:56:42.554Z,36.83
2023-03-06T11:59:47.016Z,37.45
2023-03-06T12:02:39.357Z,35.38
2023-03-06T12:05:37.314Z,37.11
2023-03-06T12:08:41.363Z,36.08
2023-03-06T12:11:18.774Z,35.52
2023-03-06T12:14:05.981Z,35.67
2023-03-06T12:16:59.528Z,36.88
2023-03-06T12:19:41.849Z,35.11
2023-03-06T12:22:22.629Z,36.75
2023-03-06T12:25:03.204Z,33.71
2023-03-06T12:27:43.380Z,34.94
2023-03-06T12:30:37.720Z,34.89
2023-03-06T12:33:17.407Z,35.11
2023-03-06T12:36:00.959Z,35.46
2023-03-06T12:38:51.983Z,35.69
2023-03-06T12:41:29.861Z,35.51
2023-03-06T12:44:25.360Z,35.85
2023-03-06T12:46:59.225Z,34.53
2023-03-06T12:49:32.842Z,36.01
2023-03-06T12:52:03.445Z,34.65
2023-03-06T12:54:37.415Z,36.11
2023-03-06T12:57:08.733Z,35.67
2023-03-06T12:59:40.230Z,35.98
2023-03-06T13:02:33.066Z,34.21
2023-03-06T13:05:23.433Z,35.20
2023-03-06T13:08:03.830Z,33.98
2023-03-06T13:10:35.262Z,34.19
2023-03-06T13:13:05.394Z,34.23
2023-03-06T13:15:39.819Z,34.38
2023-03-06T13:18:51.046Z,34.05
2023-03-06T13:21:46.086Z,34.33
2023-03-06T13:24:21.219Z,33.22
2023-03-06T13:26:57.029Z,33.52
2023-03-06T13:29:52.334Z,33.96
2023-03-06T13:32:31.161Z,32.75
2023-03-06T13:35:02.032Z,34.02
2023-03-06T13:37:50.748Z,33.33
2023-03-06T13:40:32.017Z,33.78
2023-03-06T13:43:13.337Z,34.23
2023-03-06T13:45:43.302Z,33.04
2023-03-06T13:48:43.054Z,33.44
2023-03-06T13:51:25.729Z,33.55
2023-03-06T13:54:35.230Z,33.44
2023-03-06T13:57:19.952Z,34.18
2023-03-06T14:00:10.352Z,33.66
2023-03-06T14:03:27.868Z,32.91
2023-03-06T14:05:56.833Z,32.23
2023-03-06T14:08:30.313Z,32.48
2023-03-06T14:11:05.238Z,33.39
2023-03-06T14:13:47.090Z,32.77
2023-03-06T14:16:22.125Z,32.74
2023-03-06T14:18:52.569Z,33.78
2023-03-06T14:21:30.906Z,34.42
2023-03-06T14:24:03.403Z,34.42
2023-03-06T14:26:35.278Z,35.26
2023-03-06T14:29:05.017Z,35.16
2023-03-06T14:31:38.329Z,34.28
2023-03-06T14:34:10.212Z,34.05
2023-03-06T14:36:46.293Z,35.11
2023-03-06T14:39:21.322Z,35.36
2023-03-06T14:41:50.413Z,36.04
2023-03-06T14:44:21.787Z,36.24
2023-03-06T14:46:52.518Z,36.22
2023-03-06T14:49:22.870Z,36.83
2023-03-06T14:51:54.278Z,37.92
2023-03-06T14:54:28.695Z,37.40
2023-03-06T14:57:03.261Z,38.40
2023-03-06T14:59:38.251Z,36.86
2023-03-06T15:02:12.577Z,37.33
2023-03-06T15:04:45.457Z,37.42
2023-03-06T15:07:18.962Z,36.99
2023-03-06T15:09:50.959Z,38.04
2023-03-06T15:12:38.722Z,38.17
2023-03-06T15:15:30.069Z,38.46
2023-03-06T15:17:59.052Z,39.02
2023-03-06T15:20:43.843Z,39.12
2023-03-06T15:23:23.060Z,40.10
2023-03-06T15:25:56.348Z,40.39
2023-03-06T15:28:31.295Z,41.13
2023-03-06T15:31:21.315Z,41.04
2023-03-06T15:34:18.723Z,44.04
2023-03-06T15:36:50.035Z,42.86
2023-03-06T15:39:38.319Z,42.95
2023-03-06T15:42:28.096Z,43.44
2023-03-06T15:45:03.075Z,45.26
2023-03-06T15:47:32.762Z,47.62
2023-03-06T15:50:03.282Z,45.66
2023-03-06T15:52:32.088Z,45.58
2023-03-06T15:55:00.914Z,46.17
2023-03-06T15:57:32.199Z,45.40
2023-03-06T16:00:02.161Z,45.83
2023-03-06T16:02:40.398Z,47.34
2023-03-06T16:05:16.869Z,47.37
2023-03-06T16:07:46.764Z,48.13
2023-03-06T16:10:17.590Z,48.69
2023-03-06T16:12:50.537Z,48.49
2023-03-06T16:15:21.817Z,47.99
2023-03-06T16:17:50.803Z,49.00
2023-03-06T16:20:21.690Z,47.33
2023-03-06T16:22:51.191Z,48.40
2023-03-06T16:25:22.682Z,49.78
2023-03-06T16:27:56.847Z,47.62
2023-03-06T16:30:27.562Z,47.57
2023-03-06T16:32:56.427Z,49.36
2023-03-06T16:35:25.596Z,47.92
2023-03-06T16:37:54.746Z,49.12
2023-03-06T16:40:25.615Z,49.13
2023-03-06T16:42:56.627Z,48.50
2023-03-06T16:45:25.988Z,47.93
2023-03-06T16:47:54.877Z,49.00
2023-03-06T16:50:26.366Z,47.08
2023-03-06T16:52:57.078Z,48.21
2023-03-06T16:55:27.304Z,47.94
2023-03-06T16:57:57.758Z,48.53
2023-03-06T17:00:31.127Z,48.56
2023-03-06T17:03:00.765Z,49.12
2023-03-06T17:05:33.136Z,47.83
2023-03-06T17:08:02.213Z,49.21
2023-03-06T17:10:31.200Z,48.37
2023-03-06T17:13:02.119Z,46.04
2023-03-06T17:15:30.993Z,47.32
2023-03-06T17:17:59.867Z,48.12
2023-03-06T17:20:29.615Z,48.70
2023-03-06T17:22:58.448Z,49.12
2023-03-06T17:25:27.312Z,49.33
2023-03-06T17:27:56.112Z,51.59
2023-03-06T17:30:26.285Z,51.54
2023-03-06T17:32:55.107Z,51.89
2023-03-06T17:35:23.940Z,51.57
2023-03-06T17:37:52.832Z,51.62
2023-03-06T17:40:21.746Z,48.95
2023-03-06T17:42:51.375Z,48.33
2023-03-06T17:45:22.465Z,49.10
2023-03-06T17:47:55.607Z,48.47
2023-03-06T17:50:24.453Z,48.19
2023-03-06T17:52:53.301Z,48.79
2023-03-06T17:55:22.104Z,47.28
2023-03-06T17:57:52.896Z,47.67
2023-03-06T18:00:23.028Z,49.15
2023-03-06T18:02:52.278Z,50.43
2023-03-06T18:05:22.520Z,50.78
2023-03-06T18:07:51.300Z,51.47
2023-03-06T18:10:20.246Z,52.08
2023-03-06T18:12:49.122Z,53.45
2023-03-06T18:15:18.125Z,53.33
2023-03-06T18:17:47.295Z,53.68
2023-03-06T18:20:16.270Z,54.02
2023-03-06T18:22:46.485Z,54.26
2023-03-06T18:25:15.327Z,54.20
2023-03-06T18:27:44.287Z,55.07
2023-03-06T18:30:14.571Z,53.75
2023-03-06T18:32:43.505Z,54.03
2023-03-06T18:35:12.402Z,56.33
2023-03-06T18:37:41.216Z,56.82
2023-03-06T18:40:13.296Z,57.20
2023-03-06T18:42:42.169Z,57.45
2023-03-06T18:45:12.875Z,56.91
2023-03-06T18:47:42.018Z,56.08
2023-03-06T18:50:16.466Z,55.97
2023-03-06T18:52:45.590Z,55.85
2023-03-06T18:55:15.894Z,55.63
2023-03-06T18:57:44.730Z,55.56
2023-03-06T19:00:14.319Z,56.07
2023-03-06T19:02:43.104Z,56.39
2023-03-06T19:05:12.011Z,59.17
2023-03-06T19:07:40.895Z,58.89
2023-03-06T19:10:11.076Z,60.88
2023-03-06T19:12:41.259Z,68.57
2023-03-06T19:15:10.781Z,66.32
2023-03-06T19:17:39.638Z,59.29
2023-03-06T19:20:09.698Z,59.55
2023-03-06T19:22:38.480Z,58.96
2023-03-06T19:25:08.458Z,63.79
2023-03-06T19:27:39.167Z,64.76
2023-03-06T19:30:13.677Z,62.25
2023-03-06T19:32:46.771Z,61.51
2023-03-06T19:35:15.634Z,58.71
2023-03-06T19:37:44.419Z,58.92
2023-03-06T19:40:14.221Z,58.71
2023-03-06T19:42:43.229Z,55.40
2023-03-06T19:45:13.755Z,59.35
2023-03-06T19:47:42.603Z,60.66
2023-03-06T19:50:12.503Z,61.79
2023-03-06T19:52:41.346Z,61.60
2023-03-06T19:55:11.484Z,60.63
2023-03-06T19:57:40.317Z,56.96
2023-03-06T20:00:11.228Z,57.24
2023-03-06T20:02:43.917Z,63.55
2023-03-06T20:05:12.816Z,60.01
2023-03-06T20:07:41.601Z,56.33
2023-03-06T20:10:11.900Z,55.59
2023-03-06T20:12:40.779Z,57.89
2023-03-06T20:15:10.731Z,59.36
2023-03-06T20:17:40.542Z,61.24
2023-03-06T20:20:12.723Z,62.60
2023-03-06T20:22:41.716Z,63.41
2023-03-06T20:25:17.222Z,65.79
2023-03-06T20:27:46.142Z,68.29
2023-03-06T20:30:15.604Z,68.18
2023-03-06T20:32:44.541Z,70.20
2023-03-06T20:35:14.829Z,70.34
2023-03-06T20:37:43.699Z,68.97
2023-03-06T20:40:13.646Z,68.06
2023-03-06T20:42:42.576Z,69.46
2023-03-06T20:45:11.962Z,68.16
2023-03-06T20:47:47.340Z,69.53
2023-03-06T20:50:17.942Z,72.05
2023-03-06T20:52:46.854Z,72.03
2023-03-06T20:55:15.789Z,74.17
2023-03-06T20:57:44.676Z,76.79
2023-03-06T21:00:14.286Z,77.51
2023-03-06T21:02:43.146Z,78.87
2023-03-06T21:05:12.255Z,78.54
2023-03-06T21:07:42.607Z,78.31
2023-03-06T21:10:13.428Z,82.13
2023-03-06T21:12:42.455Z,85.46
2023-03-06T21:15:13.008Z,86.47
2023-03-06T21:17:41.952Z,83.78
2023-03-06T21:20:12.184Z,81.73
2023-03-06T21:22:42.499Z,80.78
2023-03-06T21:25:12.828Z,79.40
2023-03-06T21:27:41.796Z,77.56
2023-03-06T21:30:13.374Z,77.45
2023-03-06T21:32:42.585Z,76.80
2023-03-06T21:35:11.499Z,78.95
2023-03-06T21:37:40.452Z,74.38
2023-03-06T21:40:12.848Z,78.89
2023-03-06T21:42:41.727Z,78.76
2023-03-06T21:45:12.084Z,82.53
2023-03-06T21:47:41.069Z,84.19
2023-03-06T21:50:12.293Z,83.22
2023-03-06T21:52:41.484Z,84.43
2023-03-06T21:55:12.026Z,85.43
2023-03-06T21:57:41.242Z,86.77
2023-03-06T22:00:12.909Z,88.45
2023-03-06T22:02:42.319Z,87.88
2023-03-06T22:05:11.423Z,91.30
2023-03-06T22:07:40.814Z,94.68
2023-03-06T22:10:14.397Z,98.33
2023-03-06T22:12:43.249Z,97.77
2023-03-06T22:15:12.472Z,96.93
2023-03-06T22:17:41.708Z,94.98
2023-03-06T22:20:13.161Z,96.61
2023-03-06T22:22:42.373Z,97.37
2023-03-06T22:25:13.125Z,96.40
2023-03-06T22:27:41.945Z,96.42
2023-03-06T22:30:11.979Z,97.13
2023-03-06T22:32:40.983Z,96.29
2023-03-06T22:35:10.630Z,94.98
2023-03-06T22:37:39.484Z,95.91
2023-03-06T22:40:09.463Z,100.00
2023-03-06T22:42:39.678Z,100.00
2023-03-06T22:45:10.320Z,100.00
2023-03-06T22:47:39.382Z,100.00
2023-03-06T22:50:09.081Z,100.00
2023-03-06T22:52:38.031Z,100.00
2023-03-06T22:55:08.065Z,100.00
2023-03-06T22:57:36.893Z,100.00
2023-03-06T23:00:09.105Z,100.00
2023-03-06T23:02:38.695Z,100.00
2023-03-06T23:05:07.777Z,100.00
2023-03-06T23:07:36.654Z,100.00
2023-03-06T23:10:06.917Z,100.00
2023-03-06T23:12:54.254Z,100.00
2023-03-06T23:15:43.177Z,100.00
2023-03-06T23:18:31.408Z,100.00
2023-03-06T23:21:20.583Z,100.00
2023-03-06T23:24:08.577Z,100.00
2023-03-06T23:26:37.468Z,100.00
2023-03-06T23:29:06.322Z,100.00
2023-03-06T23:31:37.450Z,100.00
2023-03-06T23:34:06.350Z,100.00
2023-03-06T23:36:35.220Z,100.00
2023-03-06T23:39:04.274Z,100.00
2023-03-06T23:41:33.221Z,100.00
2023-03-06T23:44:02.087Z,100.00
2023-03-06T23:46:31.294Z,100.00
2023-03-06T23:49:02.088Z,100.00
2023-03-06T23:51:31.000Z,100.00
2023-03-06T23:54:02.097Z,100.00
2023-03-06T23:56:30.879Z,100.00
2023-03-06T23:58:59.705Z,100.00
